createdAt,value
2023-01-17T00:02:43.290Z,24.00
2023-01-17T00:11:06.705Z,102.00
2023-01-17T00:19:48.655Z,28.30
2023-01-17T00:28:12.059Z,24.00
2023-01-17T00:36:35.385Z,24.70
2023-01-17T00:45:17.340Z,23.10
2023-01-17T00:53:59.630Z,26.80
2023-01-17T01:02:42.459Z,26.80
2023-01-17T01:11:27.167Z,26.60
2023-01-17T01:20:09.076Z,24.50
2023-01-17T01:28:51.212Z,22.70
2023-01-17T01:37:14.470Z,21.70
2023-01-17T01:45:38.604Z,31.90
2023-01-17T01:54:21.264Z,24.00
2023-01-17T02:02:48.935Z,17.60
2023-01-17T02:11:12.399Z,19.00
2023-01-17T02:19:35.720Z,19.20
2023-01-17T02:28:12.762Z,17.30
2023-01-17T02:36:46.331Z,61.90
2023-01-17T02:45:16.178Z,18.30
2023-01-17T02:53:54.712Z,17.30
2023-01-17T03:02:18.537Z,15.80
2023-01-17T03:10:43.133Z,15.50
2023-01-17T03:19:06.395Z,14.00
2023-01-17T03:27:29.806Z,13.50
2023-01-17T03:35:54.799Z,13.50
2023-01-17T03:44:18.085Z,20.40
2023-01-17T03:52:41.475Z,14.20
2023-01-17T04:01:05.337Z,21.20
2023-01-17T04:09:28.644Z,17.10
2023-01-17T04:17:52.042Z,13.00
2023-01-17T04:26:15.211Z,11.90
2023-01-17T04:34:38.516Z,14.00
2023-01-17T04:43:01.763Z,11.90
2023-01-17T04:51:25.193Z,14.20
2023-01-17T04:59:48.498Z,18.80
2023-01-17T05:08:11.955Z,12.40
2023-01-17T05:16:35.489Z,13.20
2023-01-17T05:24:58.783Z,13.40
2023-01-17T05:33:22.061Z,28.10
2023-01-17T05:41:45.607Z,19.00
2023-01-17T05:50:10.152Z,14.20
2023-01-17T05:58:33.517Z,12.60
2023-01-17T06:06:56.753Z,18.20
2023-01-17T06:15:20.050Z,15.80
2023-01-17T06:23:43.369Z,17.80
2023-01-17T06:32:06.663Z,14.30
2023-01-17T06:40:30.644Z,15.30
2023-01-17T06:48:53.995Z,32.70
2023-01-17T06:57:17.214Z,15.90
2023-01-17T07:05:41.766Z,14.40
2023-01-17T07:14:05.771Z,15.20
2023-01-17T07:22:29.138Z,16.20
2023-01-17T07:30:53.039Z,10.40
2023-01-17T07:39:16.906Z,16.60
2023-01-17T07:47:41.235Z,44.90
2023-01-17T07:56:07.671Z,14.60
2023-01-17T08:04:35.516Z,12.30
2023-01-17T08:12:59.214Z,9.10
2023-01-17T08:21:23.071Z,11.30
2023-01-17T08:29:48.771Z,17.20
2023-01-17T08:38:12.001Z,11.90
2023-01-17T08:46:38.774Z,14.80
2023-01-17T08:55:02.315Z,9.60
2023-01-17T09:03:25.564Z,12.00
2023-01-17T09:11:48.839Z,12.60
2023-01-17T09:20:12.435Z,12.80
2023-01-17T09:28:41.207Z,14.20
2023-01-17T09:37:05.213Z,12.90
2023-01-17T09:45:34.077Z,12.00
2023-01-17T09:53:57.554Z,12.20
2023-01-17T10:03:15.960Z,11.20
2023-01-17T10:12:01.835Z,14.70
2023-01-17T10:20:55.822Z,20.20
2023-01-17T10:29:21.288Z,14.10
2023-01-17T10:37:46.989Z,17.70
2023-01-17T10:46:36.271Z,13.20
2023-01-17T10:55:22.439Z,13.60
2023-01-17T11:03:51.382Z,22.00
2023-01-17T11:12:35.634Z,17.10
2023-01-17T11:21:12.409Z,15.10
2023-01-17T11:29:39.300Z,12.50
2023-01-17T11:38:02.609Z,12.50
2023-01-17T11:46:28.436Z,15.90
2023-01-17T11:54:54.700Z,12.60
2023-01-17T12:03:45.038Z,87.70
2023-01-17T12:12:35.699Z,19.10
2023-01-17T12:21:14.642Z,17.10
2023-01-17T12:30:07.691Z,20.60
2023-01-17T12:38:38.992Z,18.20
2023-01-17T12:47:05.836Z,20.60
2023-01-17T12:55:58.492Z,16.40
2023-01-17T13:04:57.638Z,39.60
2023-01-17T13:13:27.290Z,35.10
2023-01-17T13:21:51.178Z,605.10
2023-01-17T13:30:22.771Z,538.00
2023-01-17T13:39:06.448Z,104.80
2023-01-17T13:47:38.924Z,43.40
2023-01-17T13:56:31.758Z,41.60
2023-01-17T14:05:24.177Z,42.90
2023-01-17T14:13:50.014Z,46.80
2023-01-17T14:22:20.359Z,25.00
2023-01-17T14:30:44.848Z,55.90
2023-01-17T14:39:22.656Z,46.90
2023-01-17T14:47:48.893Z,35.00
2023-01-17T14:56:17.634Z,59.20
2023-01-17T15:04:42.752Z,32.60
2023-01-17T15:13:10.342Z,29.70
2023-01-17T15:21:40.875Z,791.70
2023-01-17T15:30:07.049Z,1566.20
2023-01-17T15:38:38.538Z,1387.00
2023-01-17T15:47:03.160Z,542.90
2023-01-17T15:55:38.189Z,191.60
2023-01-17T16:04:01.508Z,114.80
2023-01-17T16:12:24.695Z,228.50
2023-01-17T16:20:53.409Z,61.60
2023-01-17T16:29:16.917Z,36.00
2023-01-17T16:37:40.235Z,31.20
2023-01-17T16:46:03.703Z,37.30
2023-01-17T16:54:27.390Z,65.00
2023-01-17T17:02:52.117Z,25.90
2023-01-17T17:11:22.913Z,34.00
2023-01-17T17:19:47.764Z,50.30
2023-01-17T17:28:11.835Z,51.80
2023-01-17T17:36:36.419Z,36.20
2023-01-17T17:44:59.629Z,45.20
2023-01-17T17:53:22.989Z,32.80
2023-01-17T18:01:47.692Z,33.30
2023-01-17T18:10:11.403Z,33.30
2023-01-17T18:18:36.933Z,41.90
2023-01-17T18:27:00.189Z,60.80
2023-01-17T18:35:23.581Z,72.10
2023-01-17T18:43:48.209Z,60.10
2023-01-17T18:52:12.333Z,71.30
2023-01-17T19:00:35.804Z,72.20
2023-01-17T19:08:59.922Z,52.50
2023-01-17T19:17:23.250Z,53.60
2023-01-17T19:25:46.743Z,45.50
2023-01-17T19:34:14.701Z,127.00
2023-01-17T19:42:38.479Z,637.60
2023-01-17T19:51:10.738Z,166.10
2023-01-17T19:59:37.978Z,140.80
2023-01-17T20:08:02.726Z,82.50
2023-01-17T20:16:29.094Z,122.20
2023-01-17T20:24:52.602Z,117.60
2023-01-17T20:33:19.128Z,47.60
2023-01-17T20:41:49.819Z,50.00
2023-01-17T20:50:13.226Z,57.80
2023-01-17T20:58:36.557Z,51.10
2023-01-17T21:06:59.921Z,130.20
2023-01-17T21:15:23.174Z,44.30
2023-01-17T21:23:46.473Z,59.00
2023-01-17T21:32:09.872Z,51.10
2023-01-17T21:40:34.260Z,51.50
2023-01-17T21:48:58.034Z,55.80
2023-01-17T21:57:42.245Z,52.20
2023-01-17T22:06:06.790Z,57.90
2023-01-17T22:14:30.564Z,51.30
2023-01-17T22:22:54.122Z,41.10
2023-01-17T22:31:23.699Z,48.90
2023-01-17T22:39:47.237Z,50.80
2023-01-17T22:48:10.981Z,35.90
2023-01-17T22:56:34.308Z,46.70
2023-01-17T23:04:57.727Z,47.70
2023-01-17T23:13:21.797Z,55.20
2023-01-17T23:22:03.691Z,43.60
2023-01-17T23:30:35.957Z,37.30
2023-01-17T23:38:59.754Z,35.60
2023-01-17T23:47:23.708Z,50.30
2023-01-17T23:55:46.994Z,45.50
